createdAt,value
2018-07-06T00:01:20.982Z,18.16
2018-07-06T00:04:07.208Z,18.15
2018-07-06T00:06:53.462Z,18.11
2018-07-06T00:09:39.762Z,18.10
2018-07-06T00:12:26.137Z,18.05
2018-07-06T00:15:12.137Z,18.09
2018-07-06T00:17:58.483Z,17.95
2018-07-06T00:20:44.720Z,17.94
2018-07-06T00:23:30.982Z,18.05
2018-07-06T00:26:17.393Z,17.95
2018-07-06T00:29:03.874Z,17.95
2018-07-06T00:31:50.266Z,17.97
2018-07-06T00:34:36.595Z,17.97
2018-07-06T00:37:23.655Z,17.97
2018-07-06T00:40:10.102Z,17.95
2018-07-06T00:42:56.464Z,17.97
2018-07-06T00:45:42.759Z,17.95
2018-07-06T00:48:29.625Z,18.01
2018-07-06T00:51:16.069Z,17.98
2018-07-06T00:54:02.480Z,17.97
2018-07-06T00:56:49.013Z,17.98
2018-07-06T00:59:35.175Z,17.96
2018-07-06T01:02:21.525Z,17.92
2018-07-06T01:05:07.845Z,17.95
2018-07-06T01:07:53.975Z,17.88
2018-07-06T01:10:40.338Z,17.82
2018-07-06T01:13:26.682Z,17.89
2018-07-06T01:16:13.193Z,17.88
2018-07-06T01:18:59.397Z,17.84
2018-07-06T01:21:45.816Z,17.81
2018-07-06T01:24:32.190Z,17.72
2018-07-06T01:27:18.401Z,17.78
2018-07-06T01:30:04.818Z,17.80
2018-07-06T01:32:51.307Z,17.80
2018-07-06T01:35:37.585Z,17.79
2018-07-06T01:38:24.021Z,17.72
2018-07-06T01:41:10.544Z,17.73
2018-07-06T01:43:56.849Z,17.70
2018-07-06T01:46:43.173Z,17.71
2018-07-06T01:49:29.457Z,17.71
2018-07-06T01:52:15.821Z,17.72
2018-07-06T01:55:02.111Z,17.67
2018-07-06T01:57:48.409Z,17.67
2018-07-06T02:00:34.932Z,17.67
2018-07-06T02:03:21.503Z,17.66
2018-07-06T02:06:07.950Z,17.68
2018-07-06T02:08:54.342Z,17.63
2018-07-06T02:11:40.996Z,17.60
2018-07-06T02:14:27.399Z,17.65
2018-07-06T02:17:13.649Z,17.70
2018-07-06T02:20:00.129Z,17.72
2018-07-06T02:22:46.257Z,17.75
2018-07-06T02:25:32.762Z,17.84
2018-07-06T02:28:18.877Z,17.83
2018-07-06T02:31:05.151Z,17.86
2018-07-06T02:33:51.494Z,17.93
2018-07-06T02:36:37.910Z,17.75
2018-07-06T02:39:24.067Z,17.71
2018-07-06T02:42:10.467Z,17.68
2018-07-06T02:44:56.832Z,17.66
2018-07-06T02:47:43.005Z,17.67
2018-07-06T02:50:29.395Z,17.73
2018-07-06T02:53:15.726Z,17.63
2018-07-06T02:56:02.159Z,17.58
2018-07-06T02:58:48.318Z,17.55
2018-07-06T03:01:34.685Z,17.42
2018-07-06T03:04:21.041Z,17.43
2018-07-06T03:07:07.538Z,17.43
2018-07-06T03:09:53.810Z,17.41
2018-07-06T03:12:40.045Z,17.41
2018-07-06T03:15:26.323Z,17.36
2018-07-06T03:18:12.736Z,17.41
2018-07-06T03:20:59.020Z,17.35
2018-07-06T03:23:45.511Z,17.37
2018-07-06T03:26:31.800Z,17.29
2018-07-06T03:29:18.224Z,17.25
2018-07-06T03:32:04.645Z,17.32
2018-07-06T03:34:50.780Z,17.21
2018-07-06T03:37:37.277Z,17.17
2018-07-06T03:40:23.759Z,17.18
2018-07-06T03:43:09.936Z,17.17
2018-07-06T03:45:56.199Z,17.23
2018-07-06T03:48:42.432Z,17.27
2018-07-06T03:51:29.743Z,17.16
2018-07-06T03:54:16.186Z,17.17
2018-07-06T03:57:02.440Z,17.16
2018-07-06T03:59:48.781Z,17.34
2018-07-06T04:02:35.164Z,17.23
2018-07-06T04:05:21.533Z,17.30
2018-07-06T04:08:07.883Z,17.29
2018-07-06T04:10:54.349Z,17.23
2018-07-06T04:13:40.595Z,17.29
2018-07-06T04:16:26.893Z,17.26
2018-07-06T04:19:13.362Z,17.26
2018-07-06T04:21:59.761Z,17.37
2018-07-06T04:24:45.743Z,17.31
2018-07-06T04:27:32.021Z,17.39
2018-07-06T04:30:18.333Z,17.50
2018-07-06T04:33:04.611Z,17.57
2018-07-06T04:35:51.146Z,17.52
2018-07-06T04:38:37.486Z,17.54
2018-07-06T04:41:24.093Z,17.53
2018-07-06T04:44:10.520Z,17.47
2018-07-06T04:46:56.825Z,17.27
2018-07-06T04:49:43.185Z,17.23
2018-07-06T04:52:29.460Z,17.33
2018-07-06T04:55:15.736Z,17.26
2018-07-06T04:58:02.135Z,17.15
2018-07-06T05:00:48.300Z,17.26
2018-07-06T05:03:34.592Z,17.29
2018-07-06T05:06:21.160Z,17.42
2018-07-06T05:09:07.776Z,17.41
2018-07-06T05:11:54.053Z,17.29
2018-07-06T05:14:40.144Z,17.20
2018-07-06T05:17:26.415Z,17.21
2018-07-06T05:20:12.634Z,17.17
2018-07-06T05:22:52.953Z,17.20
2018-07-06T05:25:39.245Z,17.27
2018-07-06T05:28:25.721Z,17.28
2018-07-06T05:31:12.142Z,17.26
2018-07-06T05:33:58.323Z,17.27
2018-07-06T05:36:44.665Z,17.21
2018-07-06T05:39:30.948Z,17.18
2018-07-06T05:42:17.217Z,17.11
2018-07-06T05:45:03.634Z,16.83
2018-07-06T05:47:50.129Z,16.89
2018-07-06T05:50:36.614Z,16.88
2018-07-06T05:53:23.048Z,16.84
2018-07-06T05:56:09.385Z,16.92
2018-07-06T05:58:55.794Z,16.88
2018-07-06T06:01:42.416Z,16.92
2018-07-06T06:04:28.882Z,17.03
2018-07-06T06:07:15.301Z,16.88
2018-07-06T06:09:44.727Z,16.98
2018-07-06T06:12:14.180Z,16.94
2018-07-06T06:14:43.517Z,16.97
2018-07-06T06:17:13.212Z,16.94
2018-07-06T06:19:42.685Z,16.99
2018-07-06T06:22:12.062Z,16.95
2018-07-06T06:24:41.528Z,16.97
2018-07-06T06:27:10.856Z,16.96
2018-07-06T06:29:40.263Z,17.02
2018-07-06T06:32:10.251Z,17.03
2018-07-06T06:34:39.595Z,17.03
2018-07-06T06:37:08.641Z,17.12
2018-07-06T06:39:37.970Z,16.98
2018-07-06T06:42:07.315Z,16.97
2018-07-06T06:44:36.749Z,17.00
2018-07-06T06:47:06.146Z,17.04
2018-07-06T06:49:35.676Z,17.05
2018-07-06T06:52:05.023Z,17.08
2018-07-06T06:54:34.426Z,17.25
2018-07-06T06:57:03.897Z,17.23
2018-07-06T06:59:33.347Z,17.18
2018-07-06T07:02:02.753Z,17.12
2018-07-06T07:04:32.325Z,17.04
2018-07-06T07:07:01.919Z,17.12
2018-07-06T07:09:31.296Z,17.05
2018-07-06T07:12:00.690Z,17.03
2018-07-06T07:14:30.111Z,17.18
2018-07-06T07:16:59.568Z,17.23
2018-07-06T07:19:29.116Z,17.26
2018-07-06T07:21:58.528Z,17.24
2018-07-06T07:24:28.022Z,17.34
2018-07-06T07:27:00.390Z,17.27
2018-07-06T07:29:30.263Z,17.29
2018-07-06T07:31:59.725Z,17.39
2018-07-06T07:34:30.133Z,17.41
2018-07-06T07:36:59.567Z,17.44
2018-07-06T07:39:29.034Z,17.44
2018-07-06T07:41:58.411Z,17.45
2018-07-06T07:44:27.834Z,17.41
2018-07-06T07:46:57.280Z,17.41
2018-07-06T07:49:26.753Z,17.42
2018-07-06T07:52:13.503Z,17.36
2018-07-06T07:54:55.486Z,17.55
2018-07-06T07:57:25.152Z,17.52
2018-07-06T07:59:56.744Z,17.48
2018-07-06T08:02:26.511Z,17.44
2018-07-06T08:04:55.862Z,17.44
2018-07-06T08:07:25.206Z,17.53
2018-07-06T08:09:54.546Z,17.47
2018-07-06T08:12:24.310Z,17.42
2018-07-06T08:14:54.022Z,17.41
2018-07-06T08:17:23.375Z,17.30
2018-07-06T08:19:52.790Z,17.29
2018-07-06T08:22:22.149Z,17.28
2018-07-06T08:24:51.530Z,17.32
2018-07-06T08:27:20.874Z,17.46
2018-07-06T08:29:50.258Z,17.46
2018-07-06T08:32:19.589Z,17.39
2018-07-06T08:35:05.865Z,17.34
2018-07-06T08:37:54.780Z,17.29
2018-07-06T08:40:25.344Z,17.23
2018-07-06T08:42:55.938Z,17.28
2018-07-06T08:45:25.687Z,17.28
2018-07-06T08:47:55.089Z,17.28
2018-07-06T08:50:25.445Z,17.37
2018-07-06T08:52:55.451Z,17.36
2018-07-06T08:55:25.263Z,17.32
2018-07-06T08:57:55.876Z,17.42
2018-07-06T09:00:25.233Z,17.29
2018-07-06T09:02:54.577Z,17.26
2018-07-06T09:05:23.904Z,17.21
2018-07-06T09:07:53.275Z,17.22
2018-07-06T09:10:22.747Z,17.20
2018-07-06T09:12:52.083Z,17.24
2018-07-06T09:15:21.420Z,17.42
2018-07-06T09:17:50.723Z,17.48
2018-07-06T09:20:20.056Z,17.58
2018-07-06T09:22:49.648Z,17.66
2018-07-06T09:25:19.006Z,17.76
2018-07-06T09:27:48.325Z,17.75
2018-07-06T09:30:17.774Z,17.90
2018-07-06T09:32:47.110Z,17.91
2018-07-06T09:35:18.542Z,17.95
2018-07-06T09:37:47.950Z,17.97
2018-07-06T09:40:17.252Z,17.94
2018-07-06T09:42:46.611Z,18.01
2018-07-06T09:45:15.937Z,18.04
2018-07-06T09:47:45.517Z,18.10
2018-07-06T09:50:14.822Z,18.19
2018-07-06T09:52:44.173Z,18.11
2018-07-06T09:55:13.602Z,18.17
2018-07-06T09:57:42.968Z,18.22
2018-07-06T10:00:16.494Z,18.30
2018-07-06T10:02:45.887Z,18.35
2018-07-06T10:05:15.410Z,18.41
2018-07-06T10:07:44.797Z,18.42
2018-07-06T10:10:14.256Z,18.45
2018-07-06T10:12:43.765Z,18.44
2018-07-06T10:15:13.183Z,18.52
2018-07-06T10:17:42.573Z,18.77
2018-07-06T10:20:11.966Z,18.73
2018-07-06T10:22:41.344Z,18.56
2018-07-06T10:25:10.724Z,18.64
2018-07-06T10:27:58.422Z,18.59
2018-07-06T10:30:50.596Z,18.62
2018-07-06T10:33:20.010Z,18.60
2018-07-06T10:35:49.406Z,18.62
2018-07-06T10:38:18.773Z,18.71
2018-07-06T10:40:48.195Z,18.56
2018-07-06T10:43:17.604Z,18.51
2018-07-06T10:45:46.973Z,18.54
2018-07-06T10:48:16.384Z,18.61
2018-07-06T10:50:45.766Z,18.64
2018-07-06T10:53:15.112Z,18.58
2018-07-06T10:55:44.799Z,18.56
2018-07-06T10:58:14.889Z,18.53
2018-07-06T11:00:44.367Z,18.59
2018-07-06T11:03:13.693Z,18.66
2018-07-06T11:05:43.245Z,18.72
2018-07-06T11:08:12.655Z,18.69
2018-07-06T11:10:42.023Z,18.78
2018-07-06T11:13:11.350Z,18.78
2018-07-06T11:15:40.705Z,18.81
2018-07-06T11:18:10.092Z,18.86
2018-07-06T11:20:39.408Z,18.97
2018-07-06T11:23:08.750Z,19.05
2018-07-06T11:25:38.090Z,19.05
2018-07-06T11:28:08.432Z,19.09
2018-07-06T11:30:37.907Z,19.05
2018-07-06T11:33:07.275Z,19.03
2018-07-06T11:35:36.845Z,19.07
2018-07-06T11:38:06.301Z,19.17
2018-07-06T11:40:35.590Z,19.12
2018-07-06T11:43:05.013Z,19.28
2018-07-06T11:45:34.351Z,19.24
2018-07-06T11:48:03.699Z,19.31
2018-07-06T11:50:33.336Z,19.38
2018-07-06T11:53:02.814Z,19.44
2018-07-06T11:55:32.450Z,19.35
2018-07-06T11:58:01.806Z,19.28
2018-07-06T12:00:31.434Z,19.26
2018-07-06T12:03:00.861Z,19.20
2018-07-06T12:05:30.450Z,19.10
2018-07-06T12:07:59.846Z,19.12
2018-07-06T12:10:29.342Z,19.16
2018-07-06T12:12:58.721Z,19.04
2018-07-06T12:15:28.181Z,19.12
2018-07-06T12:17:57.685Z,18.90
2018-07-06T12:20:27.125Z,18.89
2018-07-06T12:22:56.545Z,18.86
2018-07-06T12:25:26.517Z,18.89
2018-07-06T12:27:55.943Z,19.11
2018-07-06T12:30:25.345Z,19.06
2018-07-06T12:32:54.708Z,19.09
2018-07-06T12:35:24.102Z,19.11
2018-07-06T12:37:53.486Z,19.33
2018-07-06T12:40:23.010Z,19.24
2018-07-06T12:42:52.445Z,19.19
2018-07-06T12:45:21.877Z,19.12
2018-07-06T12:47:51.224Z,19.07
2018-07-06T12:50:20.604Z,19.05
2018-07-06T12:52:49.999Z,19.20
2018-07-06T12:55:19.383Z,19.18
2018-07-06T12:57:48.776Z,19.20
2018-07-06T13:00:18.129Z,19.07
2018-07-06T13:02:47.983Z,19.02
2018-07-06T13:05:17.391Z,18.99
2018-07-06T13:07:47.025Z,18.99
2018-07-06T13:10:16.412Z,19.02
2018-07-06T13:12:45.760Z,19.07
2018-07-06T13:15:15.126Z,19.02
2018-07-06T13:17:44.527Z,18.99
2018-07-06T13:20:14.490Z,18.96
2018-07-06T13:22:44.104Z,19.00
2018-07-06T13:25:13.515Z,18.99
2018-07-06T13:27:42.887Z,18.98
2018-07-06T13:30:12.323Z,19.08
2018-07-06T13:32:41.699Z,19.09
2018-07-06T13:35:11.268Z,18.98
2018-07-06T13:37:40.649Z,19.01
2018-07-06T13:40:10.081Z,18.98
2018-07-06T13:42:39.537Z,19.00
2018-07-06T13:45:08.892Z,19.01
2018-07-06T13:47:38.266Z,19.03
2018-07-06T13:50:07.634Z,19.05
2018-07-06T13:52:36.998Z,19.06
2018-07-06T13:55:06.469Z,19.03
2018-07-06T13:57:35.818Z,19.04
2018-07-06T14:00:05.225Z,19.10
2018-07-06T14:02:34.649Z,19.11
2018-07-06T14:05:04.243Z,19.11
2018-07-06T14:07:33.596Z,19.03
2018-07-06T14:10:03.010Z,19.10
2018-07-06T14:12:32.313Z,19.11
2018-07-06T14:15:01.716Z,19.09
2018-07-06T14:17:31.085Z,19.11
2018-07-06T14:20:00.466Z,19.17
2018-07-06T14:22:29.864Z,19.20
2018-07-06T14:24:59.228Z,19.10
2018-07-06T14:27:28.689Z,19.11
2018-07-06T14:29:58.063Z,19.12
2018-07-06T14:32:27.164Z,19.14
2018-07-06T14:34:56.944Z,19.14
2018-07-06T14:37:26.377Z,19.17
2018-07-06T14:39:55.766Z,19.22
2018-07-06T14:42:25.238Z,19.26
2018-07-06T14:44:54.583Z,19.31
2018-07-06T14:47:23.917Z,19.38
2018-07-06T14:49:53.266Z,19.40
2018-07-06T14:52:22.641Z,19.36
2018-07-06T14:54:52.034Z,19.42
2018-07-06T14:57:21.360Z,19.49
2018-07-06T14:59:50.670Z,19.48
2018-07-06T15:02:20.010Z,19.44
2018-07-06T15:04:49.349Z,19.48
2018-07-06T15:07:18.685Z,19.52
2018-07-06T15:09:48.917Z,19.50
2018-07-06T15:12:18.322Z,19.52
2018-07-06T15:14:47.631Z,19.56
2018-07-06T15:17:17.040Z,19.56
2018-07-06T15:19:46.356Z,19.56
2018-07-06T15:22:15.710Z,19.57
2018-07-06T15:24:45.129Z,19.77
2018-07-06T15:27:14.449Z,19.67
2018-07-06T15:29:43.799Z,19.68
2018-07-06T15:32:13.135Z,19.72
2018-07-06T15:34:42.508Z,19.73
2018-07-06T15:37:11.850Z,19.76
2018-07-06T15:39:41.157Z,19.88
2018-07-06T15:42:10.988Z,19.96
2018-07-06T15:44:40.462Z,20.00
2018-07-06T15:47:09.782Z,20.07
2018-07-06T15:49:39.157Z,20.06
2018-07-06T15:52:08.727Z,20.10
2018-07-06T15:54:37.839Z,20.14
2018-07-06T15:57:07.248Z,20.18
2018-07-06T15:59:36.595Z,20.23
2018-07-06T16:02:06.000Z,20.23
2018-07-06T16:04:35.402Z,20.23
2018-07-06T16:07:04.763Z,20.26
2018-07-06T16:09:34.179Z,20.25
2018-07-06T16:12:03.734Z,20.23
2018-07-06T16:14:33.163Z,20.26
2018-07-06T16:17:02.518Z,20.20
2018-07-06T16:19:31.892Z,20.17
2018-07-06T16:22:01.322Z,20.15
2018-07-06T16:24:30.739Z,20.08
2018-07-06T16:27:00.117Z,20.07
2018-07-06T16:29:29.565Z,20.02
2018-07-06T16:31:58.962Z,19.95
2018-07-06T16:34:28.500Z,19.92
2018-07-06T16:36:57.857Z,19.87
2018-07-06T16:39:27.534Z,19.87
2018-07-06T16:41:56.923Z,19.82
2018-07-06T16:44:26.311Z,19.70
2018-07-06T16:46:55.695Z,19.56
2018-07-06T16:49:25.039Z,19.56
2018-07-06T16:51:54.394Z,19.49
2018-07-06T16:54:23.766Z,19.48
2018-07-06T16:56:53.095Z,19.45
2018-07-06T16:59:22.429Z,19.43
2018-07-06T17:01:51.769Z,19.41
2018-07-06T17:04:21.140Z,19.36
2018-07-06T17:06:50.492Z,19.31
2018-07-06T17:09:19.966Z,19.18
2018-07-06T17:11:49.353Z,19.23
2018-07-06T17:14:18.854Z,19.20
2018-07-06T17:16:48.176Z,19.13
2018-07-06T17:19:17.629Z,19.06
2018-07-06T17:21:46.978Z,19.02
2018-07-06T17:24:16.403Z,19.02
2018-07-06T17:26:46.111Z,18.95
2018-07-06T17:29:15.398Z,18.98
2018-07-06T17:31:44.742Z,18.93
2018-07-06T17:34:14.148Z,18.90
2018-07-06T17:36:43.534Z,18.91
2018-07-06T17:39:12.956Z,18.92
2018-07-06T17:41:42.301Z,18.83
2018-07-06T17:44:11.675Z,18.83
2018-07-06T17:46:41.091Z,18.83
2018-07-06T17:49:10.561Z,18.87
2018-07-06T17:51:40.666Z,18.89
2018-07-06T17:54:10.098Z,18.88
2018-07-06T17:56:39.492Z,18.84
2018-07-06T17:59:08.897Z,18.81
2018-07-06T18:01:38.309Z,18.78
2018-07-06T18:04:07.848Z,18.81
2018-07-06T18:06:37.291Z,18.81
2018-07-06T18:09:07.238Z,18.74
2018-07-06T18:11:36.632Z,18.65
2018-07-06T18:14:06.120Z,18.64
2018-07-06T18:16:35.526Z,18.62
2018-07-06T18:19:04.987Z,18.57
2018-07-06T18:21:34.429Z,18.60
2018-07-06T18:24:03.808Z,18.58
2018-07-06T18:26:33.181Z,18.57
2018-07-06T18:29:02.578Z,18.58
2018-07-06T18:31:31.981Z,18.50
2018-07-06T18:34:01.421Z,18.44
2018-07-06T18:36:30.762Z,18.45
2018-07-06T18:39:00.268Z,18.42
2018-07-06T18:41:29.623Z,18.35
2018-07-06T18:43:58.981Z,18.38
2018-07-06T18:46:28.378Z,18.32
2018-07-06T18:48:57.715Z,18.37
2018-07-06T18:51:27.240Z,18.32
2018-07-06T18:53:56.634Z,18.32
2018-07-06T18:56:26.038Z,18.28
2018-07-06T18:58:55.465Z,18.24
2018-07-06T19:01:24.837Z,18.24
2018-07-06T19:03:54.289Z,18.21
2018-07-06T19:06:24.560Z,18.16
2018-07-06T19:08:55.364Z,18.15
2018-07-06T19:11:24.754Z,18.15
2018-07-06T19:13:54.111Z,18.13
2018-07-06T19:16:23.698Z,18.17
2018-07-06T19:18:53.232Z,18.14
2018-07-06T19:21:22.605Z,18.06
2018-07-06T19:23:52.024Z,18.02
2018-07-06T19:26:21.392Z,17.98
2018-07-06T19:28:50.895Z,17.92
2018-07-06T19:31:20.306Z,17.95
2018-07-06T19:33:49.487Z,17.93
2018-07-06T19:36:18.980Z,17.82
2018-07-06T19:38:48.980Z,17.83
2018-07-06T19:41:18.357Z,17.74
2018-07-06T19:43:47.746Z,17.81
2018-07-06T19:46:17.208Z,17.84
2018-07-06T19:48:46.687Z,17.86
2018-07-06T19:51:16.065Z,17.72
2018-07-06T19:53:45.596Z,17.64
2018-07-06T19:56:15.040Z,17.66
2018-07-06T19:58:44.420Z,17.57
2018-07-06T20:01:14.131Z,17.60
2018-07-06T20:03:43.515Z,17.57
2018-07-06T20:06:12.857Z,17.56
2018-07-06T20:08:42.326Z,17.50
2018-07-06T20:11:11.635Z,17.55
2018-07-06T20:13:41.031Z,17.55
2018-07-06T20:16:10.401Z,17.44
2018-07-06T20:18:39.825Z,17.44
2018-07-06T20:21:09.210Z,17.42
2018-07-06T20:23:38.670Z,17.42
2018-07-06T20:26:08.046Z,17.44
2018-07-06T20:28:37.447Z,17.48
2018-07-06T20:31:06.815Z,17.50
2018-07-06T20:33:36.199Z,17.40
2018-07-06T20:36:05.871Z,17.39
2018-07-06T20:38:35.253Z,17.38
2018-07-06T20:41:04.613Z,17.37
2018-07-06T20:43:34.049Z,17.48
2018-07-06T20:46:03.399Z,17.49
2018-07-06T20:48:32.779Z,17.66
2018-07-06T20:51:02.220Z,17.57
2018-07-06T20:53:31.567Z,17.53
2018-07-06T20:56:00.933Z,17.55
2018-07-06T20:58:30.282Z,17.56
2018-07-06T21:00:59.658Z,17.59
2018-07-06T21:03:28.981Z,17.66
2018-07-06T21:05:58.369Z,17.68
2018-07-06T21:08:27.711Z,17.74
2018-07-06T21:10:57.224Z,17.75
2018-07-06T21:13:26.566Z,17.58
2018-07-06T21:15:55.927Z,17.56
2018-07-06T21:18:25.285Z,17.46
2018-07-06T21:20:54.671Z,17.31
2018-07-06T21:23:24.037Z,17.28
2018-07-06T21:25:53.393Z,17.37
2018-07-06T21:28:22.714Z,17.35
2018-07-06T21:30:52.050Z,17.26
2018-07-06T21:33:21.391Z,17.23
2018-07-06T21:35:50.791Z,17.20
2018-07-06T21:38:20.085Z,17.28
2018-07-06T21:40:49.414Z,17.34
2018-07-06T21:43:18.754Z,17.36
2018-07-06T21:45:48.393Z,17.38
2018-07-06T21:48:17.724Z,17.41
2018-07-06T21:50:47.137Z,17.40
2018-07-06T21:53:16.435Z,17.42
2018-07-06T21:55:45.802Z,17.36
2018-07-06T21:58:15.139Z,17.33
2018-07-06T22:00:44.527Z,17.28
2018-07-06T22:03:13.880Z,17.29
2018-07-06T22:05:43.514Z,17.23
2018-07-06T22:08:12.873Z,17.25
2018-07-06T22:10:42.361Z,17.25
2018-07-06T22:13:11.664Z,17.25
2018-07-06T22:15:45.079Z,17.30
2018-07-06T22:18:16.298Z,17.25
2018-07-06T22:20:46.690Z,17.21
2018-07-06T22:23:16.460Z,17.18
2018-07-06T22:25:45.869Z,17.21
2018-07-06T22:28:15.290Z,17.20
2018-07-06T22:30:44.725Z,17.16
2018-07-06T22:33:14.110Z,17.17
2018-07-06T22:35:43.525Z,17.16
2018-07-06T22:38:12.941Z,17.19
2018-07-06T22:40:42.309Z,17.18
2018-07-06T22:43:11.696Z,17.17
2018-07-06T22:45:41.061Z,17.17
2018-07-06T22:48:10.454Z,17.12
2018-07-06T22:50:39.832Z,17.11
2018-07-06T22:53:09.229Z,17.06
2018-07-06T22:55:38.601Z,17.08
2018-07-06T22:58:07.941Z,17.03
2018-07-06T23:00:37.274Z,17.02
2018-07-06T23:03:06.784Z,17.02
2018-07-06T23:05:36.270Z,16.94
2018-07-06T23:08:05.823Z,16.99
2018-07-06T23:10:35.204Z,16.97
2018-07-06T23:13:04.573Z,17.00
2018-07-06T23:15:34.326Z,16.95
2018-07-06T23:18:03.677Z,16.98
2018-07-06T23:20:32.998Z,16.91
2018-07-06T23:23:10.150Z,16.88
2018-07-06T23:25:41.763Z,16.91
2018-07-06T23:28:11.168Z,16.92
2018-07-06T23:30:40.614Z,16.93
2018-07-06T23:33:10.537Z,17.00
2018-07-06T23:35:40.069Z,16.96
2018-07-06T23:38:09.597Z,16.92
2018-07-06T23:40:38.888Z,16.93
2018-07-06T23:43:08.237Z,16.93
2018-07-06T23:45:37.601Z,16.84
2018-07-06T23:48:06.980Z,16.82
2018-07-06T23:50:36.346Z,16.85
2018-07-06T23:53:05.926Z,16.80
2018-07-06T23:55:35.266Z,16.84
2018-07-06T23:58:04.593Z,16.78
